sensor_id;sensor_type;location;lat;lon;timestamp;temperature;humidity
25556;DHT22;13447;57.174;-2.112;2023-06-04T00:11:09;12.20;99.90
25556;DHT22;13447;57.174;-2.112;2023-06-04T00:14:19;12.20;99.90
25556;DHT22;13447;57.174;-2.112;2023-06-04T00:19:43;12.20;99.90
25556;DHT22;13447;57.174;-2.112;2023-06-04T00:22:12;12.20;99.90
25556;DHT22;13447;57.174;-2.112;2023-06-04T00:24:55;12.20;99.90
25556;DHT22;13447;57.174;-2.112;2023-06-04T00:27:51;12.20;99.90
25556;DHT22;13447;57.174;-2.112;2023-06-04T00:34:12;12.20;99.90
25556;DHT22;13447;57.174;-2.112;2023-06-04T00:36:55;12.10;99.90
25556;DHT22;13447;57.174;-2.112;2023-06-04T00:45:04;12.00;99.90
25556;DHT22;13447;57.174;-2.112;2023-06-04T00:50:54;12.10;99.90
25556;DHT22;13447;57.174;-2.112;2023-06-04T01:05:07;12.00;99.90
25556;DHT22;13447;57.174;-2.112;2023-06-04T01:26:40;12.00;99.90
25556;DHT22;13447;57.174;-2.112;2023-06-04T01:32:37;11.90;99.90
25556;DHT22;13447;57.174;-2.112;2023-06-04T01:35:39;11.90;99.90
25556;DHT22;13447;57.174;-2.112;2023-06-04T01:38:41;11.90;99.90
25556;DHT22;13447;57.174;-2.112;2023-06-04T01:41:44;11.80;99.90
25556;DHT22;13447;57.174;-2.112;2023-06-04T01:47:13;11.90;99.90
25556;DHT22;13447;57.174;-2.112;2023-06-04T01:49:54;11.80;99.90
25556;DHT22;13447;57.174;-2.112;2023-06-04T01:52:36;11.80;99.90
25556;DHT22;13447;57.174;-2.112;2023-06-04T02:19:29;11.80;99.90
25556;DHT22;13447;57.174;-2.112;2023-06-04T02:27:25;11.70;99.90
25556;DHT22;13447;57.174;-2.112;2023-06-04T02:38:04;11.50;99.90
25556;DHT22;13447;57.174;-2.112;2023-06-04T02:40:55;11.50;99.90
25556;DHT22;13447;57.174;-2.112;2023-06-04T02:47:23;11.50;99.90
25556;DHT22;13447;57.174;-2.112;2023-06-04T02:50:04;11.50;99.90
25556;DHT22;13447;57.174;-2.112;2023-06-04T02:52:36;11.40;99.90
25556;DHT22;13447;57.174;-2.112;2023-06-04T02:55:07;11.40;99.90
25556;DHT22;13447;57.174;-2.112;2023-06-04T02:57:49;11.40;99.90
25556;DHT22;13447;57.174;-2.112;2023-06-04T03:00:26;11.40;99.90
25556;DHT22;13447;57.174;-2.112;2023-06-04T03:03:13;11.40;99.90
25556;DHT22;13447;57.174;-2.112;2023-06-04T03:05:58;11.40;99.90
25556;DHT22;13447;57.174;-2.112;2023-06-04T03:11:49;11.40;99.90
25556;DHT22;13447;57.174;-2.112;2023-06-04T03:14:30;11.40;99.90
25556;DHT22;13447;57.174;-2.112;2023-06-04T03:20:04;11.40;99.90
25556;DHT22;13447;57.174;-2.112;2023-06-04T03:26:15;11.50;99.90
25556;DHT22;13447;57.174;-2.112;2023-06-04T03:29:33;11.40;99.90
25556;DHT22;13447;57.174;-2.112;2023-06-04T03:32:45;11.40;99.90
25556;DHT22;13447;57.174;-2.112;2023-06-04T03:35:14;11.40;99.90
25556;DHT22;13447;57.174;-2.112;2023-06-04T03:37:41;11.40;99.90
25556;DHT22;13447;57.174;-2.112;2023-06-04T03:40:21;11.20;99.90
25556;DHT22;13447;57.174;-2.112;2023-06-04T03:48:27;11.10;99.90
25556;DHT22;13447;57.174;-2.112;2023-06-04T03:59:14;11.10;99.90
25556;DHT22;13447;57.174;-2.112;2023-06-04T04:02:00;11.00;99.90
25556;DHT22;13447;57.174;-2.112;2023-06-04T04:07:36;11.10;99.90
25556;DHT22;13447;57.174;-2.112;2023-06-04T04:10:18;11.10;99.90
25556;DHT22;13447;57.174;-2.112;2023-06-04T04:12:46;11.10;99.90
25556;DHT22;13447;57.174;-2.112;2023-06-04T04:18:33;11.10;99.90
25556;DHT22;13447;57.174;-2.112;2023-06-04T04:29:22;11.00;99.90
25556;DHT22;13447;57.174;-2.112;2023-06-04T04:32:15;11.00;99.90
25556;DHT22;13447;57.174;-2.112;2023-06-04T04:34:58;11.00;99.90
25556;DHT22;13447;57.174;-2.112;2023-06-04T04:37:44;11.10;99.90
25556;DHT22;13447;57.174;-2.112;2023-06-04T04:51:12;11.20;99.90
25556;DHT22;13447;57.174;-2.112;2023-06-04T05:10:00;11.10;99.90
25556;DHT22;13447;57.174;-2.112;2023-06-04T05:12:52;10.90;99.90
25556;DHT22;13447;57.174;-2.112;2023-06-04T05:21:24;11.00;99.90
25556;DHT22;13447;57.174;-2.112;2023-06-04T05:26:52;11.20;99.90
25556;DHT22;13447;57.174;-2.112;2023-06-04T05:32:09;11.30;99.90
25556;DHT22;13447;57.174;-2.112;2023-06-04T05:50:59;11.40;99.90
25556;DHT22;13447;57.174;-2.112;2023-06-04T05:53:41;11.40;99.90
25556;DHT22;13447;57.174;-2.112;2023-06-04T05:56:18;11.50;99.90
25556;DHT22;13447;57.174;-2.112;2023-06-04T05:59:18;11.30;99.90
25556;DHT22;13447;57.174;-2.112;2023-06-04T06:02:04;11.20;99.90
25556;DHT22;13447;57.174;-2.112;2023-06-04T06:04:55;11.40;99.90
25556;DHT22;13447;57.174;-2.112;2023-06-04T06:26:56;11.70;99.90
25556;DHT22;13447;57.174;-2.112;2023-06-04T06:37:29;11.90;99.90
25556;DHT22;13447;57.174;-2.112;2023-06-04T06:39:56;11.90;99.90
25556;DHT22;13447;57.174;-2.112;2023-06-04T06:42:24;11.80;99.90
25556;DHT22;13447;57.174;-2.112;2023-06-04T06:44:57;11.70;99.90
25556;DHT22;13447;57.174;-2.112;2023-06-04T06:47:25;11.60;99.90
25556;DHT22;13447;57.174;-2.112;2023-06-04T06:50:09;11.50;99.90
25556;DHT22;13447;57.174;-2.112;2023-06-04T06:52:38;11.70;99.90
25556;DHT22;13447;57.174;-2.112;2023-06-04T06:55:05;11.70;99.90
25556;DHT22;13447;57.174;-2.112;2023-06-04T06:57:32;11.80;99.90
25556;DHT22;13447;57.174;-2.112;2023-06-04T07:00:00;11.80;99.90
25556;DHT22;13447;57.174;-2.112;2023-06-04T07:02:27;11.90;99.90
25556;DHT22;13447;57.174;-2.112;2023-06-04T07:04:57;12.00;99.90
25556;DHT22;13447;57.174;-2.112;2023-06-04T07:07:59;12.00;99.90
25556;DHT22;13447;57.174;-2.112;2023-06-04T07:10:48;12.00;99.90
25556;DHT22;13447;57.174;-2.112;2023-06-04T07:13:18;12.00;99.90
25556;DHT22;13447;57.174;-2.112;2023-06-04T07:15:51;12.00;99.90
25556;DHT22;13447;57.174;-2.112;2023-06-04T07:19:02;12.10;99.90
25556;DHT22;13447;57.174;-2.112;2023-06-04T07:21:29;12.00;99.90
25556;DHT22;13447;57.174;-2.112;2023-06-04T07:24:05;12.10;99.90
25556;DHT22;13447;57.174;-2.112;2023-06-04T07:26:42;12.00;99.90
25556;DHT22;13447;57.174;-2.112;2023-06-04T07:32:03;12.00;99.90
25556;DHT22;13447;57.174;-2.112;2023-06-04T07:34:30;12.20;99.90
25556;DHT22;13447;57.174;-2.112;2023-06-04T07:36:58;12.30;99.90
25556;DHT22;13447;57.174;-2.112;2023-06-04T07:39:25;12.30;99.90
25556;DHT22;13447;57.174;-2.112;2023-06-04T07:42:06;12.30;99.90
25556;DHT22;13447;57.174;-2.112;2023-06-04T07:47:31;12.10;99.90
25556;DHT22;13447;57.174;-2.112;2023-06-04T07:50:02;12.00;99.90
25556;DHT22;13447;57.174;-2.112;2023-06-04T07:52:33;12.10;99.90
25556;DHT22;13447;57.174;-2.112;2023-06-04T07:55:01;12.20;99.90
25556;DHT22;13447;57.174;-2.112;2023-06-04T07:57:30;12.40;99.90
25556;DHT22;13447;57.174;-2.112;2023-06-04T07:59:57;12.50;99.90
25556;DHT22;13447;57.174;-2.112;2023-06-04T08:02:27;12.50;99.90
25556;DHT22;13447;57.174;-2.112;2023-06-04T08:07:45;12.40;99.90
25556;DHT22;13447;57.174;-2.112;2023-06-04T08:13:10;12.50;99.90
25556;DHT22;13447;57.174;-2.112;2023-06-04T08:15:37;12.40;99.90
25556;DHT22;13447;57.174;-2.112;2023-06-04T08:18:04;12.30;99.90
25556;DHT22;13447;57.174;-2.112;2023-06-04T08:20:31;12.30;99.90
25556;DHT22;13447;57.174;-2.112;2023-06-04T08:22:57;12.30;99.90
25556;DHT22;13447;57.174;-2.112;2023-06-04T08:25:24;12.30;99.90
25556;DHT22;13447;57.174;-2.112;2023-06-04T08:27:51;12.30;99.90
25556;DHT22;13447;57.174;-2.112;2023-06-04T08:30:18;12.30;99.90
25556;DHT22;13447;57.174;-2.112;2023-06-04T08:32:45;12.30;99.90
25556;DHT22;13447;57.174;-2.112;2023-06-04T08:35:12;12.40;99.90
25556;DHT22;13447;57.174;-2.112;2023-06-04T08:37:39;12.60;99.90
25556;DHT22;13447;57.174;-2.112;2023-06-04T08:40:06;12.70;99.90
25556;DHT22;13447;57.174;-2.112;2023-06-04T08:42:38;12.60;99.90
25556;DHT22;13447;57.174;-2.112;2023-06-04T08:45:10;12.70;99.90
25556;DHT22;13447;57.174;-2.112;2023-06-04T08:47:40;12.70;99.90
25556;DHT22;13447;57.174;-2.112;2023-06-04T08:50:09;12.70;99.90
25556;DHT22;13447;57.174;-2.112;2023-06-04T08:52:37;12.70;99.90
25556;DHT22;13447;57.174;-2.112;2023-06-04T08:55:04;12.70;99.90
25556;DHT22;13447;57.174;-2.112;2023-06-04T08:57:31;12.70;99.90
25556;DHT22;13447;57.174;-2.112;2023-06-04T08:59:58;12.80;99.90
25556;DHT22;13447;57.174;-2.112;2023-06-04T09:02:25;12.60;99.90
25556;DHT22;13447;57.174;-2.112;2023-06-04T09:04:53;12.50;99.90
25556;DHT22;13447;57.174;-2.112;2023-06-04T09:07:20;12.50;99.90
25556;DHT22;13447;57.174;-2.112;2023-06-04T09:09:47;12.50;99.90
25556;DHT22;13447;57.174;-2.112;2023-06-04T09:12:35;12.50;99.90
25556;DHT22;13447;57.174;-2.112;2023-06-04T09:15:02;12.70;99.90
25556;DHT22;13447;57.174;-2.112;2023-06-04T09:17:30;12.70;99.90
25556;DHT22;13447;57.174;-2.112;2023-06-04T09:19:56;12.60;99.90
25556;DHT22;13447;57.174;-2.112;2023-06-04T09:22:33;12.80;99.90
25556;DHT22;13447;57.174;-2.112;2023-06-04T09:25:01;12.90;99.90
25556;DHT22;13447;57.174;-2.112;2023-06-04T09:27:36;12.80;99.90
25556;DHT22;13447;57.174;-2.112;2023-06-04T09:30:03;12.80;99.90
25556;DHT22;13447;57.174;-2.112;2023-06-04T09:32:30;12.90;99.90
25556;DHT22;13447;57.174;-2.112;2023-06-04T09:35:13;12.90;99.90
25556;DHT22;13447;57.174;-2.112;2023-06-04T09:37:41;13.10;92.20
25556;DHT22;13447;57.174;-2.112;2023-06-04T09:40:08;13.10;99.90
25556;DHT22;13447;57.174;-2.112;2023-06-04T09:42:43;13.10;99.90
25556;DHT22;13447;57.174;-2.112;2023-06-04T09:45:10;13.20;99.90
25556;DHT22;13447;57.174;-2.112;2023-06-04T09:47:41;13.40;99.90
25556;DHT22;13447;57.174;-2.112;2023-06-04T09:50:10;13.70;99.90
25556;DHT22;13447;57.174;-2.112;2023-06-04T09:52:37;13.60;62.10
25556;DHT22;13447;57.174;-2.112;2023-06-04T09:55:16;13.70;48.00
25556;DHT22;13447;57.174;-2.112;2023-06-04T09:57:46;13.90;45.20
25556;DHT22;13447;57.174;-2.112;2023-06-04T10:00:18;14.20;3.20
25556;DHT22;13447;57.174;-2.112;2023-06-04T10:02:45;14.20;1.00
25556;DHT22;13447;57.174;-2.112;2023-06-04T10:05:13;14.30;14.10
25556;DHT22;13447;57.174;-2.112;2023-06-04T10:10:09;14.80;1.00
25556;DHT22;13447;57.174;-2.112;2023-06-04T10:12:37;14.50;1.00
25556;DHT22;13447;57.174;-2.112;2023-06-04T10:15:09;14.60;1.00
25556;DHT22;13447;57.174;-2.112;2023-06-04T10:17:36;14.60;1.00
25556;DHT22;13447;57.174;-2.112;2023-06-04T10:20:04;14.60;1.00
25556;DHT22;13447;57.174;-2.112;2023-06-04T10:22:32;14.40;1.00
25556;DHT22;13447;57.174;-2.112;2023-06-04T10:25:00;14.30;1.00
25556;DHT22;13447;57.174;-2.112;2023-06-04T10:27:27;14.30;1.00
25556;DHT22;13447;57.174;-2.112;2023-06-04T10:29:54;14.30;1.00
25556;DHT22;13447;57.174;-2.112;2023-06-04T10:32:22;14.50;1.00
25556;DHT22;13447;57.174;-2.112;2023-06-04T10:34:49;14.50;1.00
25556;DHT22;13447;57.174;-2.112;2023-06-04T10:37:22;14.60;1.00
25556;DHT22;13447;57.174;-2.112;2023-06-04T10:39:50;14.60;1.00
25556;DHT22;13447;57.174;-2.112;2023-06-04T10:42:17;14.10;1.00
25556;DHT22;13447;57.174;-2.112;2023-06-04T10:44:45;13.70;1.00
25556;DHT22;13447;57.174;-2.112;2023-06-04T10:47:22;13.80;40.90
25556;DHT22;13447;57.174;-2.112;2023-06-04T10:49:53;14.30;1.00
25556;DHT22;13447;57.174;-2.112;2023-06-04T10:52:20;14.70;1.00
25556;DHT22;13447;57.174;-2.112;2023-06-04T10:54:47;14.90;1.00
25556;DHT22;13447;57.174;-2.112;2023-06-04T10:57:20;15.00;1.00
25556;DHT22;13447;57.174;-2.112;2023-06-04T10:59:54;15.30;1.00
25556;DHT22;13447;57.174;-2.112;2023-06-04T11:02:21;15.40;1.00
25556;DHT22;13447;57.174;-2.112;2023-06-04T11:04:58;15.60;1.00
25556;DHT22;13447;57.174;-2.112;2023-06-04T11:07:28;15.20;1.00
25556;DHT22;13447;57.174;-2.112;2023-06-04T11:09:55;15.50;1.00
25556;DHT22;13447;57.174;-2.112;2023-06-04T11:12:22;16.10;1.00
25556;DHT22;13447;57.174;-2.112;2023-06-04T11:14:55;16.30;1.00
25556;DHT22;13447;57.174;-2.112;2023-06-04T11:17:22;16.60;1.00
25556;DHT22;13447;57.174;-2.112;2023-06-04T11:19:50;16.90;1.00
25556;DHT22;13447;57.174;-2.112;2023-06-04T11:22:22;16.60;1.00
25556;DHT22;13447;57.174;-2.112;2023-06-04T11:24:49;16.80;1.00
25556;DHT22;13447;57.174;-2.112;2023-06-04T11:27:17;16.40;1.00
25556;DHT22;13447;57.174;-2.112;2023-06-04T11:30:01;16.60;1.00
25556;DHT22;13447;57.174;-2.112;2023-06-04T11:32:28;16.30;1.00
25556;DHT22;13447;57.174;-2.112;2023-06-04T11:35:04;15.90;1.00
25556;DHT22;13447;57.174;-2.112;2023-06-04T11:37:34;16.00;1.00
25556;DHT22;13447;57.174;-2.112;2023-06-04T11:40:02;15.90;1.00
25556;DHT22;13447;57.174;-2.112;2023-06-04T11:42:31;15.60;1.00
25556;DHT22;13447;57.174;-2.112;2023-06-04T11:44:58;15.60;1.00
25556;DHT22;13447;57.174;-2.112;2023-06-04T11:47:25;15.70;1.00
25556;DHT22;13447;57.174;-2.112;2023-06-04T11:49:55;15.80;1.00
25556;DHT22;13447;57.174;-2.112;2023-06-04T11:52:23;15.30;1.00
25556;DHT22;13447;57.174;-2.112;2023-06-04T11:54:50;15.10;1.00
25556;DHT22;13447;57.174;-2.112;2023-06-04T11:57:17;15.10;1.00
25556;DHT22;13447;57.174;-2.112;2023-06-04T11:59:44;15.10;1.00
25556;DHT22;13447;57.174;-2.112;2023-06-04T12:02:11;15.30;1.00
25556;DHT22;13447;57.174;-2.112;2023-06-04T12:04:38;15.50;1.00
25556;DHT22;13447;57.174;-2.112;2023-06-04T12:07:05;15.60;1.00
25556;DHT22;13447;57.174;-2.112;2023-06-04T12:09:33;15.50;1.00
25556;DHT22;13447;57.174;-2.112;2023-06-04T12:12:05;15.20;1.00
25556;DHT22;13447;57.174;-2.112;2023-06-04T12:14:32;15.10;1.00
25556;DHT22;13447;57.174;-2.112;2023-06-04T12:17:06;14.90;1.00
25556;DHT22;13447;57.174;-2.112;2023-06-04T12:19:44;15.20;1.00
25556;DHT22;13447;57.174;-2.112;2023-06-04T12:22:11;15.80;1.00
25556;DHT22;13447;57.174;-2.112;2023-06-04T12:24:48;15.70;1.00
25556;DHT22;13447;57.174;-2.112;2023-06-04T12:27:15;15.40;1.00
25556;DHT22;13447;57.174;-2.112;2023-06-04T12:29:42;15.50;1.00
25556;DHT22;13447;57.174;-2.112;2023-06-04T12:32:09;15.70;1.00
25556;DHT22;13447;57.174;-2.112;2023-06-04T12:34:39;15.80;1.00
25556;DHT22;13447;57.174;-2.112;2023-06-04T12:37:07;16.00;1.00
25556;DHT22;13447;57.174;-2.112;2023-06-04T12:39:35;15.70;1.00
25556;DHT22;13447;57.174;-2.112;2023-06-04T12:42:05;15.80;1.00
25556;DHT22;13447;57.174;-2.112;2023-06-04T12:44:32;15.60;1.00
25556;DHT22;13447;57.174;-2.112;2023-06-04T12:47:01;15.40;1.00
25556;DHT22;13447;57.174;-2.112;2023-06-04T12:49:28;15.20;1.00
25556;DHT22;13447;57.174;-2.112;2023-06-04T12:51:55;15.50;1.00
25556;DHT22;13447;57.174;-2.112;2023-06-04T12:54:22;15.90;1.00
25556;DHT22;13447;57.174;-2.112;2023-06-04T12:56:49;16.00;1.00
25556;DHT22;13447;57.174;-2.112;2023-06-04T12:59:17;16.50;1.00
25556;DHT22;13447;57.174;-2.112;2023-06-04T13:01:43;16.40;1.00
25556;DHT22;13447;57.174;-2.112;2023-06-04T13:04:10;16.50;1.00
25556;DHT22;13447;57.174;-2.112;2023-06-04T13:06:37;16.60;1.00
25556;DHT22;13447;57.174;-2.112;2023-06-04T13:09:05;16.50;1.00
25556;DHT22;13447;57.174;-2.112;2023-06-04T13:11:43;16.70;1.00
25556;DHT22;13447;57.174;-2.112;2023-06-04T13:14:10;17.00;1.00
25556;DHT22;13447;57.174;-2.112;2023-06-04T13:16:38;16.70;1.00
25556;DHT22;13447;57.174;-2.112;2023-06-04T13:19:05;16.60;1.00
25556;DHT22;13447;57.174;-2.112;2023-06-04T13:21:32;16.60;1.00
25556;DHT22;13447;57.174;-2.112;2023-06-04T13:23:59;16.90;1.00
25556;DHT22;13447;57.174;-2.112;2023-06-04T13:26:26;16.70;1.00
25556;DHT22;13447;57.174;-2.112;2023-06-04T13:28:53;16.50;1.00
25556;DHT22;13447;57.174;-2.112;2023-06-04T13:31:20;16.90;1.00
25556;DHT22;13447;57.174;-2.112;2023-06-04T13:33:47;17.40;1.00
25556;DHT22;13447;57.174;-2.112;2023-06-04T13:36:13;17.40;1.00
25556;DHT22;13447;57.174;-2.112;2023-06-04T13:38:41;17.20;1.00
25556;DHT22;13447;57.174;-2.112;2023-06-04T13:41:08;16.60;1.00
25556;DHT22;13447;57.174;-2.112;2023-06-04T13:43:36;16.10;1.00
25556;DHT22;13447;57.174;-2.112;2023-06-04T13:46:03;15.90;1.00
25556;DHT22;13447;57.174;-2.112;2023-06-04T13:48:30;16.00;1.00
25556;DHT22;13447;57.174;-2.112;2023-06-04T13:50:57;16.10;1.00
25556;DHT22;13447;57.174;-2.112;2023-06-04T13:53:24;16.10;1.00
25556;DHT22;13447;57.174;-2.112;2023-06-04T13:55:51;15.90;1.00
25556;DHT22;13447;57.174;-2.112;2023-06-04T13:58:24;16.10;1.00
25556;DHT22;13447;57.174;-2.112;2023-06-04T14:00:52;15.80;1.00
25556;DHT22;13447;57.174;-2.112;2023-06-04T14:03:19;15.60;1.00
25556;DHT22;13447;57.174;-2.112;2023-06-04T14:05:46;15.60;1.00
25556;DHT22;13447;57.174;-2.112;2023-06-04T14:08:12;15.90;1.00
25556;DHT22;13447;57.174;-2.112;2023-06-04T14:10:39;15.60;1.00
25556;DHT22;13447;57.174;-2.112;2023-06-04T14:13:08;15.60;1.00
25556;DHT22;13447;57.174;-2.112;2023-06-04T14:15:35;15.10;1.00
25556;DHT22;13447;57.174;-2.112;2023-06-04T14:18:03;15.00;1.00
25556;DHT22;13447;57.174;-2.112;2023-06-04T14:20:30;14.70;1.00
25556;DHT22;13447;57.174;-2.112;2023-06-04T14:22:57;14.60;1.00
25556;DHT22;13447;57.174;-2.112;2023-06-04T14:25:24;14.60;1.00
25556;DHT22;13447;57.174;-2.112;2023-06-04T14:27:51;14.70;1.00
25556;DHT22;13447;57.174;-2.112;2023-06-04T14:30:18;14.40;1.00
25556;DHT22;13447;57.174;-2.112;2023-06-04T14:32:45;14.30;1.00
25556;DHT22;13447;57.174;-2.112;2023-06-04T14:35:12;14.30;1.00
25556;DHT22;13447;57.174;-2.112;2023-06-04T14:37:39;14.20;1.00
25556;DHT22;13447;57.174;-2.112;2023-06-04T14:40:06;14.30;1.00
25556;DHT22;13447;57.174;-2.112;2023-06-04T14:42:33;14.30;1.00
25556;DHT22;13447;57.174;-2.112;2023-06-04T14:45:00;14.40;1.00
25556;DHT22;13447;57.174;-2.112;2023-06-04T14:47:26;14.60;1.00
25556;DHT22;13447;57.174;-2.112;2023-06-04T14:49:53;14.50;1.00
25556;DHT22;13447;57.174;-2.112;2023-06-04T14:52:20;14.50;1.00
25556;DHT22;13447;57.174;-2.112;2023-06-04T14:54:47;14.50;1.00
25556;DHT22;13447;57.174;-2.112;2023-06-04T14:57:14;14.60;1.00
25556;DHT22;13447;57.174;-2.112;2023-06-04T14:59:43;14.60;1.00
25556;DHT22;13447;57.174;-2.112;2023-06-04T15:02:09;14.70;1.00
25556;DHT22;13447;57.174;-2.112;2023-06-04T15:04:36;14.80;1.00
25556;DHT22;13447;57.174;-2.112;2023-06-04T15:07:04;14.90;1.00
25556;DHT22;13447;57.174;-2.112;2023-06-04T15:09:30;14.80;1.00
25556;DHT22;13447;57.174;-2.112;2023-06-04T15:11:57;15.10;1.00
25556;DHT22;13447;57.174;-2.112;2023-06-04T15:14:24;14.70;1.00
25556;DHT22;13447;57.174;-2.112;2023-06-04T15:16:51;14.30;1.00
25556;DHT22;13447;57.174;-2.112;2023-06-04T15:19:18;13.90;1.00
25556;DHT22;13447;57.174;-2.112;2023-06-04T15:21:45;14.00;1.00
25556;DHT22;13447;57.174;-2.112;2023-06-04T15:24:12;14.10;1.00
25556;DHT22;13447;57.174;-2.112;2023-06-04T15:26:39;14.20;1.00
25556;DHT22;13447;57.174;-2.112;2023-06-04T15:29:05;13.90;1.00
25556;DHT22;13447;57.174;-2.112;2023-06-04T15:31:34;13.80;21.80
25556;DHT22;13447;57.174;-2.112;2023-06-04T15:34:01;14.00;1.00
25556;DHT22;13447;57.174;-2.112;2023-06-04T15:36:27;14.20;1.00
25556;DHT22;13447;57.174;-2.112;2023-06-04T15:38:54;14.40;1.00
25556;DHT22;13447;57.174;-2.112;2023-06-04T15:41:21;14.50;1.00
25556;DHT22;13447;57.174;-2.112;2023-06-04T15:43:48;14.40;1.00
25556;DHT22;13447;57.174;-2.112;2023-06-04T15:46:15;14.40;1.00
25556;DHT22;13447;57.174;-2.112;2023-06-04T15:48:42;14.50;1.00
25556;DHT22;13447;57.174;-2.112;2023-06-04T15:51:10;14.10;1.00
25556;DHT22;13447;57.174;-2.112;2023-06-04T15:53:36;14.10;1.00
25556;DHT22;13447;57.174;-2.112;2023-06-04T15:56:03;14.20;1.00
25556;DHT22;13447;57.174;-2.112;2023-06-04T15:58:30;14.20;1.00
25556;DHT22;13447;57.174;-2.112;2023-06-04T16:00:57;14.00;1.00
25556;DHT22;13447;57.174;-2.112;2023-06-04T16:03:26;14.20;1.00
25556;DHT22;13447;57.174;-2.112;2023-06-04T16:05:53;14.30;1.00
25556;DHT22;13447;57.174;-2.112;2023-06-04T16:08:20;14.00;1.00
25556;DHT22;13447;57.174;-2.112;2023-06-04T16:10:47;13.50;33.70
25556;DHT22;13447;57.174;-2.112;2023-06-04T16:13:14;13.70;1.00
25556;DHT22;13447;57.174;-2.112;2023-06-04T16:15:41;13.60;16.20
25556;DHT22;13447;57.174;-2.112;2023-06-04T16:18:08;13.70;12.80
25556;DHT22;13447;57.174;-2.112;2023-06-04T16:20:35;13.90;1.00
25556;DHT22;13447;57.174;-2.112;2023-06-04T16:23:02;14.10;1.00
25556;DHT22;13447;57.174;-2.112;2023-06-04T16:25:29;13.80;1.00
25556;DHT22;13447;57.174;-2.112;2023-06-04T16:27:56;13.90;1.00
25556;DHT22;13447;57.174;-2.112;2023-06-04T16:30:22;14.10;1.00
25556;DHT22;13447;57.174;-2.112;2023-06-04T16:32:49;14.20;1.00
25556;DHT22;13447;57.174;-2.112;2023-06-04T16:35:17;14.10;1.00
25556;DHT22;13447;57.174;-2.112;2023-06-04T16:37:44;14.20;1.00
25556;DHT22;13447;57.174;-2.112;2023-06-04T16:40:10;14.20;1.00
25556;DHT22;13447;57.174;-2.112;2023-06-04T16:42:37;14.20;1.00
25556;DHT22;13447;57.174;-2.112;2023-06-04T16:45:04;14.10;1.00
25556;DHT22;13447;57.174;-2.112;2023-06-04T16:47:32;14.20;1.00
25556;DHT22;13447;57.174;-2.112;2023-06-04T16:49:59;14.20;1.00
25556;DHT22;13447;57.174;-2.112;2023-06-04T16:52:26;14.00;1.00
25556;DHT22;13447;57.174;-2.112;2023-06-04T16:54:53;14.00;1.00
25556;DHT22;13447;57.174;-2.112;2023-06-04T16:57:21;14.10;1.00
25556;DHT22;13447;57.174;-2.112;2023-06-04T16:59:48;14.10;1.00
25556;DHT22;13447;57.174;-2.112;2023-06-04T17:02:15;14.10;1.00
25556;DHT22;13447;57.174;-2.112;2023-06-04T17:04:43;13.80;1.00
25556;DHT22;13447;57.174;-2.112;2023-06-04T17:07:10;13.60;1.00
25556;DHT22;13447;57.174;-2.112;2023-06-04T17:09:37;13.80;1.00
25556;DHT22;13447;57.174;-2.112;2023-06-04T17:12:04;13.70;1.00
25556;DHT22;13447;57.174;-2.112;2023-06-04T17:14:31;13.40;1.00
25556;DHT22;13447;57.174;-2.112;2023-06-04T17:16:58;13.30;20.90
25556;DHT22;13447;57.174;-2.112;2023-06-04T17:19:25;13.30;9.10
25556;DHT22;13447;57.174;-2.112;2023-06-04T17:21:52;13.20;13.10
25556;DHT22;13447;57.174;-2.112;2023-06-04T17:24:19;13.30;40.90
25556;DHT22;13447;57.174;-2.112;2023-06-04T17:26:46;13.30;29.30
25556;DHT22;13447;57.174;-2.112;2023-06-04T17:29:13;13.40;3.50
25556;DHT22;13447;57.174;-2.112;2023-06-04T17:31:39;13.40;1.00
25556;DHT22;13447;57.174;-2.112;2023-06-04T17:34:06;13.30;80.60
25556;DHT22;13447;57.174;-2.112;2023-06-04T17:36:33;13.10;28.30
25556;DHT22;13447;57.174;-2.112;2023-06-04T17:39:00;13.10;1.00
25556;DHT22;13447;57.174;-2.112;2023-06-04T17:41:27;12.70;51.20
25556;DHT22;13447;57.174;-2.112;2023-06-04T17:43:54;12.40;99.90
25556;DHT22;13447;57.174;-2.112;2023-06-04T17:46:21;12.50;99.90
25556;DHT22;13447;57.174;-2.112;2023-06-04T17:48:49;12.50;99.90
25556;DHT22;13447;57.174;-2.112;2023-06-04T17:51:16;12.60;99.90
25556;DHT22;13447;57.174;-2.112;2023-06-04T17:53:43;12.60;99.90
25556;DHT22;13447;57.174;-2.112;2023-06-04T17:56:09;12.60;87.00
25556;DHT22;13447;57.174;-2.112;2023-06-04T17:58:36;12.60;99.90
25556;DHT22;13447;57.174;-2.112;2023-06-04T18:01:03;12.50;99.90
25556;DHT22;13447;57.174;-2.112;2023-06-04T18:03:30;12.50;99.90
25556;DHT22;13447;57.174;-2.112;2023-06-04T18:05:57;12.40;99.90
25556;DHT22;13447;57.174;-2.112;2023-06-04T18:08:24;12.40;99.90
25556;DHT22;13447;57.174;-2.112;2023-06-04T18:10:51;12.50;99.90
25556;DHT22;13447;57.174;-2.112;2023-06-04T18:13:19;12.50;99.90
25556;DHT22;13447;57.174;-2.112;2023-06-04T18:15:46;12.50;99.90
25556;DHT22;13447;57.174;-2.112;2023-06-04T18:18:13;12.60;99.90
25556;DHT22;13447;57.174;-2.112;2023-06-04T18:20:40;12.70;86.20
25556;DHT22;13447;57.174;-2.112;2023-06-04T18:23:07;12.70;72.50
25556;DHT22;13447;57.174;-2.112;2023-06-04T18:25:39;12.40;99.90
25556;DHT22;13447;57.174;-2.112;2023-06-04T18:28:05;12.40;99.90
25556;DHT22;13447;57.174;-2.112;2023-06-04T18:30:32;12.50;99.90
25556;DHT22;13447;57.174;-2.112;2023-06-04T18:32:59;12.40;99.90
25556;DHT22;13447;57.174;-2.112;2023-06-04T18:35:26;12.50;99.90
25556;DHT22;13447;57.174;-2.112;2023-06-04T18:37:53;12.60;99.90
25556;DHT22;13447;57.174;-2.112;2023-06-04T18:40:20;12.40;92.00
25556;DHT22;13447;57.174;-2.112;2023-06-04T18:42:47;12.30;99.90
25556;DHT22;13447;57.174;-2.112;2023-06-04T18:45:14;12.30;99.90
25556;DHT22;13447;57.174;-2.112;2023-06-04T18:47:41;12.20;99.90
25556;DHT22;13447;57.174;-2.112;2023-06-04T18:50:08;12.00;99.90
25556;DHT22;13447;57.174;-2.112;2023-06-04T18:52:35;11.90;99.90
25556;DHT22;13447;57.174;-2.112;2023-06-04T18:55:06;11.80;99.90
25556;DHT22;13447;57.174;-2.112;2023-06-04T18:57:34;11.80;99.90
25556;DHT22;13447;57.174;-2.112;2023-06-04T19:00:02;11.70;99.90
25556;DHT22;13447;57.174;-2.112;2023-06-04T19:02:37;11.80;99.90
25556;DHT22;13447;57.174;-2.112;2023-06-04T19:05:05;11.70;99.90
25556;DHT22;13447;57.174;-2.112;2023-06-04T19:07:36;11.70;99.90
25556;DHT22;13447;57.174;-2.112;2023-06-04T19:10:03;11.70;99.90
25556;DHT22;13447;57.174;-2.112;2023-06-04T19:12:29;11.70;99.90
25556;DHT22;13447;57.174;-2.112;2023-06-04T19:14:57;11.70;99.90
25556;DHT22;13447;57.174;-2.112;2023-06-04T19:17:23;11.70;99.90
25556;DHT22;13447;57.174;-2.112;2023-06-04T19:19:55;11.70;99.90
25556;DHT22;13447;57.174;-2.112;2023-06-04T19:22:21;11.80;99.90
25556;DHT22;13447;57.174;-2.112;2023-06-04T19:24:48;11.80;99.90
25556;DHT22;13447;57.174;-2.112;2023-06-04T19:27:15;11.90;99.90
25556;DHT22;13447;57.174;-2.112;2023-06-04T19:29:44;11.80;99.90
25556;DHT22;13447;57.174;-2.112;2023-06-04T19:32:12;11.80;99.90
25556;DHT22;13447;57.174;-2.112;2023-06-04T19:34:39;11.80;99.90
25556;DHT22;13447;57.174;-2.112;2023-06-04T19:37:06;11.80;99.90
25556;DHT22;13447;57.174;-2.112;2023-06-04T19:39:33;11.80;99.90
25556;DHT22;13447;57.174;-2.112;2023-06-04T19:42:00;11.90;99.90